Time;durP1;ratioP1;P1;durP2;ratioP2;P2;SDS_P1;SDS_P2;PMS_P1;PMS_P2;Temp;Humidity;BMP_temperature;BMP_pressure;BME280_temperature;BME280_humidity;BME280_pressure;Samples;Min_cycle;Max_cycle;Signal;HPM_P1;HPM_P2
2022/09/16 00:00:11;;;;;;;0.10;0.10;;;12.90;81.10;;;;;;4953194;29;20036;-75
2022/09/16 00:02:36;;;;;;;0.20;0.13;;;12.90;81.20;;;;;;4953716;28;20067;-76
2022/09/16 00:05:02;;;;;;;0.30;0.30;;;12.90;81.30;;;;;;4953183;28;20520;-75
2022/09/16 00:07:29;;;;;;;0.65;0.20;;;12.90;81.40;;;;;;4951926;29;20505;-75
2022/09/16 00:09:55;;;;;;;0.73;0.20;;;12.90;81.50;;;;;;4953079;28;20079;-75
2022/09/16 00:12:21;;;;;;;0.20;0.20;;;12.90;81.50;;;;;;4953357;28;20432;-75
2022/09/16 00:14:47;;;;;;;0.13;0.10;;;12.90;81.40;;;;;;4953126;28;20082;-75
2022/09/16 00:17:12;;;;;;;0.10;0.10;;;12.90;81.40;;;;;;4950798;28;20119;-75
2022/09/16 00:19:38;;;;;;;0.22;0.22;;;12.90;81.40;;;;;;4951990;29;20035;-76
2022/09/16 00:22:04;;;;;;;0.13;0.13;;;12.90;81.30;;;;;;4953000;28;20082;-75
2022/09/16 00:24:30;;;;;;;0.10;0.10;;;13.00;81.30;;;;;;4951589;29;20034;-75
2022/09/16 00:26:56;;;;;;;0.40;0.20;;;13.00;81.30;;;;;;4952042;29;20035;-75
2022/09/16 00:29:22;;;;;;;0.35;0.20;;;13.00;81.30;;;;;;4948495;29;20586;-75
2022/09/16 00:31:47;;;;;;;0.10;0.10;;;13.00;81.40;;;;;;4953187;28;20054;-75
2022/09/16 00:34:13;;;;;;;0.22;0.20;;;13.00;82.00;;;;;;4953331;28;20039;-75
2022/09/16 00:36:39;;;;;;;0.40;0.20;;;13.00;81.30;;;;;;4953010;28;20138;-75
2022/09/16 00:39:04;;;;;;;0.52;0.20;;;13.00;81.30;;;;;;4953444;28;20047;-75
2022/09/16 00:41:32;;;;;;;0.20;0.20;;;13.00;81.40;;;;;;4935879;29;20039;-75
2022/09/16 00:44:02;;;;;;;0.10;0.10;;;13.00;81.50;;;;;;4951490;29;20126;-75
2022/09/16 00:46:36;;;;;;;0.20;0.20;;;13.00;81.50;;;;;;4953124;29;20073;-75
2022/09/16 00:49:10;;;;;;;0.13;0.13;;;13.00;81.50;;;;;;4952685;28;20039;-75
2022/09/16 00:51:37;;;;;;;0.20;0.20;;;13.00;81.50;;;;;;4953240;28;20474;-75
2022/09/16 00:54:04;;;;;;;0.20;0.20;;;13.10;81.60;;;;;;4952569;28;20053;-75
2022/09/16 00:56:34;;;;;;;0.60;0.20;;;13.00;81.60;;;;;;4952169;28;20058;-75
2022/09/16 00:59:09;;;;;;;0.17;0.10;;;13.00;81.70;;;;;;4952683;28;20047;-75
2022/09/16 01:01:36;;;;;;;0.10;0.10;;;13.00;81.70;;;;;;4952786;28;20051;-75
2022/09/16 01:04:07;;;;;;;0.10;0.10;;;13.00;81.70;;;;;;4952353;28;20061;-75
2022/09/16 01:06:37;;;;;;;0.25;0.15;;;13.00;82.40;;;;;;4951628;29;20478;-75
2022/09/16 01:09:03;;;;;;;0.10;0.10;;;13.00;81.80;;;;;;4952821;28;20098;-75
2022/09/16 01:11:29;;;;;;;0.28;0.10;;;13.00;81.80;;;;;;4952284;28;20039;-76
2022/09/16 01:14:51;;;;;;;0.10;0.10;;;13.00;81.80;;;;;;4952491;28;20039;-75
2022/09/16 01:16:49;;;;;;;0.10;0.10;;;13.00;81.80;;;;;;4949338;29;20075;-75
2022/09/16 01:19:45;;;;;;;0.90;0.20;;;13.00;81.80;;;;;;4952258;28;20047;-76
2022/09/16 01:22:35;;;;;;;0.20;0.20;;;13.00;81.90;;;;;;4951662;29;20046;-75
2022/09/16 01:25:35;;;;;;;0.10;0.10;;;13.00;82.00;;;;;;4952355;28;20032;-76
2022/09/16 01:28:23;;;;;;;0.25;0.20;;;13.00;82.00;;;;;;4951567;28;20482;-76
2022/09/16 01:31:16;;;;;;;0.43;0.20;;;13.10;82.20;;;;;;4955805;28;20243;-75
2022/09/16 01:34:04;;;;;;;0.10;0.10;;;12.90;82.10;;;;;;4955464;28;20036;-76
2022/09/16 01:36:49;;;;;;;0.10;0.10;;;12.90;82.10;;;;;;4955397;29;20044;-76
2022/09/16 01:39:37;;;;;;;0.30;0.20;;;13.00;82.10;;;;;;4940050;29;20094;-76
2022/09/16 01:42:32;;;;;;;0.10;0.10;;;13.00;82.10;;;;;;4955684;28;20062;-75
2022/09/16 01:45:21;;;;;;;0.10;0.10;;;13.00;82.10;;;;;;4955457;28;20047;-75
2022/09/16 01:48:13;;;;;;;0.10;0.10;;;12.90;82.10;;;;;;4954048;29;20142;-75
2022/09/16 01:50:49;;;;;;;0.10;0.10;;;13.00;82.20;;;;;;4953791;29;20497;-75
2022/09/16 01:53:28;;;;;;;0.10;0.10;;;12.90;82.10;;;;;;4954496;29;20406;-75
2022/09/16 01:56:02;;;;;;;0.10;0.10;;;12.90;82.10;;;;;;4955453;28;20086;-75
2022/09/16 01:58:50;;;;;;;0.35;0.10;;;12.90;82.20;;;;;;4955012;28;20130;-76
2022/09/16 02:01:30;;;;;;;0.20;0.20;;;12.90;82.20;;;;;;4954904;28;20074;-75
2022/09/16 02:04:10;;;;;;;0.10;0.10;;;12.90;82.80;;;;;;4953708;29;20043;-75
2022/09/16 02:06:42;;;;;;;0.35;0.20;;;12.90;82.20;;;;;;4955482;28;20050;-75
2022/09/16 02:09:15;;;;;;;0.20;0.20;;;13.00;82.30;;;;;;4953728;29;20118;-75
2022/09/16 02:11:43;;;;;;;0.43;0.13;;;12.90;82.30;;;;;;4938175;29;20039;-75
2022/09/16 02:14:22;;;;;;;0.47;0.25;;;12.90;82.30;;;;;;4955178;28;20832;-75
2022/09/16 02:16:55;;;;;;;0.10;0.10;;;12.90;82.50;;;;;;4954220;29;20074;-75
2022/09/16 02:19:27;;;;;;;0.20;0.20;;;12.90;82.50;;;;;;4954786;28;20035;-75
2022/09/16 02:21:55;;;;;;;0.73;0.20;;;12.90;82.50;;;;;;4953465;29;20542;-75
2022/09/16 02:24:24;;;;;;;0.20;0.20;;;12.90;82.50;;;;;;4954562;28;20031;-75
2022/09/16 02:26:56;;;;;;;0.20;0.20;;;12.90;83.10;;;;;;4953475;29;20043;-75
2022/09/16 02:29:25;;;;;;;0.45;0.20;;;12.90;82.50;;;;;;4953404;29;20122;-75
2022/09/16 02:31:55;;;;;;;0.20;0.20;;;12.90;82.50;;;;;;4937537;29;20385;-75
2022/09/16 02:34:29;;;;;;;0.13;0.13;;;12.90;82.40;;;;;;4955330;29;20504;-75
2022/09/16 02:37:03;;;;;;;0.20;0.10;;;12.90;82.50;;;;;;4953207;29;20078;-75
2022/09/16 02:39:32;;;;;;;0.50;0.20;;;12.90;82.40;;;;;;4952553;28;20715;-75
2022/09/16 02:41:58;;;;;;;0.17;0.17;;;12.90;82.40;;;;;;4954376;28;20442;-75
2022/09/16 02:44:25;;;;;;;0.38;0.20;;;12.90;82.50;;;;;;4953445;29;20047;-76
2022/09/16 02:47:00;;;;;;;0.50;0.30;;;12.90;82.50;;;;;;4954896;28;20381;-75
2022/09/16 02:49:53;;;;;;;0.38;0.30;;;12.90;82.60;;;;;;4952955;29;20051;-75
2022/09/16 02:52:39;;;;;;;0.35;0.28;;;12.80;82.60;;;;;;4954588;28;20122;-75
2022/09/16 02:55:44;;;;;;;0.20;0.20;;;12.80;82.60;;;;;;4953413;29;20036;-75
2022/09/16 02:58:10;;;;;;;1.38;0.30;;;12.80;82.70;;;;;;4953690;29;20051;-75
2022/09/16 03:00:42;;;;;;;0.10;0.10;;;12.80;82.80;;;;;;4953075;29;20066;-76
2022/09/16 03:03:07;;;;;;;;;;;12.80;82.90;;;;;;4955207;28;20087;-75
2022/09/16 03:05:33;;;;;;;0.38;0.20;;;12.70;82.80;;;;;;4954329;28;19957;-75
2022/09/16 03:08:05;;;;;;;0.10;0.10;;;12.70;82.70;;;;;;4936752;29;20043;-75
2022/09/16 03:10:42;;;;;;;0.15;0.15;;;12.70;82.80;;;;;;4952830;29;20461;-76
2022/09/16 03:13:16;;;;;;;0.25;0.10;;;12.70;82.80;;;;;;4954453;28;20043;-76
2022/09/16 03:15:53;;;;;;;0.10;0.10;;;12.80;82.80;;;;;;4954444;28;20043;-75
2022/09/16 03:18:41;;;;;;;0.20;0.20;;;12.80;82.90;;;;;;4953910;28;20047;-75
2022/09/16 03:21:29;;;;;;;0.70;0.20;;;12.80;82.90;;;;;;4954194;28;20043;-75
2022/09/16 03:24:14;;;;;;;0.20;0.20;;;12.70;82.90;;;;;;4953111;29;20047;-75
2022/09/16 03:26:48;;;;;;;0.35;0.30;;;12.80;83.00;;;;;;4952752;29;20035;-75
2022/09/16 03:29:40;;;;;;;0.10;0.10;;;12.70;82.90;;;;;;4954347;28;20043;-76
2022/09/16 03:32:20;;;;;;;0.55;0.20;;;12.70;83.00;;;;;;4952825;29;20119;-75
2022/09/16 03:34:53;;;;;;;0.10;0.10;;;12.70;83.00;;;;;;4953939;28;20039;-75
2022/09/16 03:37:22;;;;;;;0.10;0.10;;;12.70;83.00;;;;;;4953607;28;20043;-75
2022/09/16 03:39:52;;;;;;;0.10;0.10;;;12.70;82.90;;;;;;4953719;28;20054;-75
2022/09/16 03:42:18;;;;;;;0.55;0.20;;;12.70;82.90;;;;;;4952821;29;20058;-76
2022/09/16 03:44:44;;;;;;;0.20;0.15;;;12.70;82.90;;;;;;4953852;28;20066;-75
2022/09/16 03:47:10;;;;;;;0.22;0.22;;;12.70;83.00;;;;;;4954267;28;20035;-76
2022/09/16 03:49:37;;;;;;;0.30;0.30;;;12.70;83.00;;;;;;4954234;29;20043;-75
2022/09/16 03:52:05;;;;;;;0.85;0.30;;;12.70;83.00;;;;;;4952525;28;20405;-76
2022/09/16 03:54:31;;;;;;;0.32;0.20;;;12.70;83.00;;;;;;4953918;28;20497;-75
2022/09/16 03:56:59;;;;;;;0.20;0.20;;;12.70;83.10;;;;;;4954212;28;20047;-76
2022/09/16 03:59:25;;;;;;;0.20;0.20;;;12.70;83.00;;;;;;4954077;29;20442;-75
2022/09/16 04:01:51;;;;;;;0.32;0.30;;;12.70;83.10;;;;;;4954236;29;20486;-75
2022/09/16 04:04:17;;;;;;;0.10;0.10;;;12.80;83.10;;;;;;4954415;29;20035;-75
2022/09/16 04:06:43;;;;;;;0.70;0.28;;;12.70;83.00;;;;;;4951267;29;20050;-75
2022/09/16 04:09:11;;;;;;;0.20;0.20;;;12.70;83.10;;;;;;4954097;29;20042;-75
2022/09/16 04:11:37;;;;;;;0.52;0.10;;;12.70;83.10;;;;;;4952729;29;20043;-76
2022/09/16 04:14:04;;;;;;;0.52;0.20;;;12.70;83.20;;;;;;4952822;29;20107;-75
2022/09/16 04:16:30;;;;;;;0.20;0.20;;;12.80;83.30;;;;;;4951663;29;20118;-75
2022/09/16 04:18:56;;;;;;;0.10;0.10;;;12.70;83.20;;;;;;4951494;29;20047;-75
2022/09/16 04:21:22;;;;;;;0.17;0.17;;;12.70;83.20;;;;;;4952170;29;20517;-76
2022/09/16 04:23:48;;;;;;;0.70;0.30;;;12.80;83.40;;;;;;4951985;29;20110;-75
2022/09/16 04:26:15;;;;;;;0.43;0.25;;;12.70;83.40;;;;;;4954944;29;20044;-75
2022/09/16 04:28:41;;;;;;;0.20;0.20;;;12.80;83.50;;;;;;4956330;29;20477;-76
2022/09/16 04:31:11;;;;;;;0.10;0.10;;;12.70;83.50;;;;;;4952434;29;20062;-76
2022/09/16 04:33:37;;;;;;;0.10;0.10;;;12.70;83.50;;;;;;4954696;29;20039;-75
2022/09/16 04:36:07;;;;;;;1.33;0.20;;;12.70;83.60;;;;;;4955080;29;20068;-76
2022/09/16 04:38:34;;;;;;;0.20;0.20;;;12.70;83.60;;;;;;4953284;29;20126;-75
2022/09/16 04:41:02;;;;;;;0.45;0.20;;;12.70;83.60;;;;;;4954073;29;20035;-75
2022/09/16 04:43:28;;;;;;;0.10;0.10;;;12.70;83.60;;;;;;4953660;29;20378;-75
2022/09/16 04:45:54;;;;;;;0.20;0.20;;;12.70;83.60;;;;;;4953893;29;20123;-76
2022/09/16 04:48:20;;;;;;;0.10;0.10;;;12.70;83.60;;;;;;4953420;29;20045;-76
2022/09/16 04:50:46;;;;;;;0.20;0.20;;;12.70;83.60;;;;;;4953687;29;20404;-75
2022/09/16 04:53:11;;;;;;;0.25;0.20;;;12.60;83.60;;;;;;4951524;29;20051;-76
2022/09/16 04:55:37;;;;;;;0.10;0.10;;;12.70;83.60;;;;;;4953482;29;20521;-75
2022/09/16 04:58:03;;;;;;;0.30;0.20;;;12.70;83.70;;;;;;4953568;29;20035;-76
2022/09/16 05:00:29;;;;;;;0.43;0.10;;;12.70;83.70;;;;;;4951590;29;20032;-75
2022/09/16 05:02:57;;;;;;;0.10;0.10;;;12.60;83.70;;;;;;4953433;28;20698;-76
2022/09/16 05:05:23;;;;;;;0.32;0.10;;;12.70;83.80;;;;;;4954231;29;20050;-76
2022/09/16 05:07:49;;;;;;;0.10;0.10;;;12.60;83.60;;;;;;4956793;29;20032;-75
2022/09/16 05:10:15;;;;;;;0.20;0.20;;;12.60;83.70;;;;;;4954794;29;20486;-75
2022/09/16 05:12:41;;;;;;;0.20;0.20;;;12.70;83.80;;;;;;4956766;29;20047;-76
2022/09/16 05:15:07;;;;;;;0.10;0.10;;;12.70;83.80;;;;;;4956327;29;20031;-76
2022/09/16 05:17:33;;;;;;;0.10;0.10;;;12.80;83.90;;;;;;4952946;29;20055;-76
2022/09/16 05:19:58;;;;;;;0.52;0.20;;;12.60;83.80;;;;;;4955208;29;20031;-75
2022/09/16 05:22:24;;;;;;;0.30;0.10;;;12.60;83.90;;;;;;4959323;29;20098;-78
2022/09/16 05:24:50;;;;;;;0.10;0.10;;;12.60;84.00;;;;;;4958672;29;20574;-78
2022/09/16 05:27:16;;;;;;;0.10;0.10;;;12.60;84.10;;;;;;4943686;29;20397;-77
2022/09/16 05:29:42;;;;;;;0.30;0.13;;;12.50;84.10;;;;;;4957117;29;20043;-77
2022/09/16 05:32:07;;;;;;;0.20;0.20;;;12.50;84.10;;;;;;4956033;29;20047;-77
2022/09/16 05:34:35;;;;;;;0.22;0.10;;;12.50;84.20;;;;;;4954872;29;20130;-75
2022/09/16 05:37:01;;;;;;;0.20;0.20;;;12.50;84.20;;;;;;4956358;29;20059;-75
2022/09/16 05:39:27;;;;;;;0.20;0.20;;;12.50;84.30;;;;;;4955856;29;20447;-75
2022/09/16 05:41:56;;;;;;;0.15;0.15;;;12.40;84.30;;;;;;4956054;29;20509;-75
2022/09/16 05:44:22;;;;;;;0.52;0.30;;;12.40;84.40;;;;;;4955504;29;20386;-75
2022/09/16 05:46:48;;;;;;;0.65;0.20;;;12.40;84.40;;;;;;4955992;29;20465;-75
2022/09/16 05:49:19;;;;;;;0.10;0.10;;;12.40;84.50;;;;;;4953890;29;20054;-75
2022/09/16 05:51:46;;;;;;;0.20;0.20;;;12.40;84.50;;;;;;4955927;29;20128;-75
2022/09/16 05:54:12;;;;;;;0.20;0.20;;;12.50;84.60;;;;;;4953071;29;20121;-75
2022/09/16 05:56:38;;;;;;;1.02;0.50;;;12.40;84.50;;;;;;4955306;29;20045;-75
2022/09/16 05:59:04;;;;;;;0.10;0.10;;;12.40;84.50;;;;;;4955401;29;20074;-76
2022/09/16 06:01:33;;;;;;;0.10;0.10;;;12.40;84.40;;;;;;4953371;29;20040;-76
2022/09/16 06:04:01;;;;;;;0.15;0.15;;;12.20;84.40;;;;;;4955284;29;20050;-77
2022/09/16 06:06:35;;;;;;;0.10;0.10;;;12.30;84.50;;;;;;4955215;29;20042;-77
2022/09/16 06:09:08;;;;;;;0.13;0.13;;;12.30;84.60;;;;;;4955101;29;20413;-78
2022/09/16 06:11:38;;;;;;;0.80;0.28;;;12.30;84.60;;;;;;4955211;29;20039;-77
2022/09/16 06:14:05;;;;;;;0.10;0.10;;;12.30;84.60;;;;;;4936871;28;20528;-77
2022/09/16 06:16:31;;;;;;;0.10;0.10;;;12.30;84.50;;;;;;4952778;29;20055;-77
2022/09/16 06:19:00;;;;;;;0.20;0.20;;;12.30;84.40;;;;;;4952737;29;20118;-77
2022/09/16 06:21:27;;;;;;;0.38;0.20;;;12.30;84.30;;;;;;4954978;29;20102;-77
2022/09/16 06:23:53;;;;;;;0.40;0.20;;;12.40;84.30;;;;;;4955194;29;20035;-75
2022/09/16 06:29:46;;;;;;;0.10;0.10;;;12.50;84.10;;;;;;4902592;29;20148;-77
2022/09/16 06:32:11;;;;;;;0.10;0.10;;;12.50;84.00;;;;;;4852725;29;20045;-76
2022/09/16 06:34:37;;;;;;;0.20;0.20;;;12.50;84.50;;;;;;4867339;29;20095;-78
2022/09/16 06:37:03;;;;;;;0.17;0.17;;;12.50;83.80;;;;;;4896074;29;20044;-77
2022/09/16 06:39:28;;;;;;;0.30;0.20;;;12.60;83.70;;;;;;4865103;29;20044;-76
2022/09/16 06:41:57;;;;;;;0.20;0.10;;;12.60;83.70;;;;;;4862175;29;20140;-78
2022/09/16 06:44:26;;;;;;;0.10;0.10;;;12.60;83.60;;;;;;4848288;29;20479;-76
2022/09/16 06:47:17;;;;;;;0.20;0.20;;;12.60;83.70;;;;;;4862523;29;20082;-77
2022/09/16 06:50:32;;;;;;;0.43;0.20;;;12.60;83.70;;;;;;4845265;29;20041;-78
2022/09/16 06:52:58;;;;;;;0.10;0.10;;;12.60;83.60;;;;;;4822206;29;20153;-78
2022/09/16 07:05:30;;;;;;;0.43;0.20;;;12.70;83.40;;;;;;4818268;29;20464;-76
2022/09/16 07:08:34;;;;;;;0.90;0.20;;;12.80;83.40;;;;;;4854514;29;20042;-77
2022/09/16 07:11:24;;;;;;;0.20;0.20;;;12.80;83.40;;;;;;4837782;29;20109;-76
2022/09/16 07:14:09;;;;;;;0.55;0.10;;;12.90;83.50;;;;;;4787651;29;20053;-75
2022/09/16 07:16:44;;;;;;;0.20;0.20;;;12.90;83.40;;;;;;4750855;30;20051;-76
2022/09/16 07:19:35;;;;;;;0.10;0.10;;;12.90;83.20;;;;;;4730700;30;20057;-77
2022/09/16 07:22:29;;;;;;;0.47;0.17;;;13.00;83.20;;;;;;4715124;30;20048;-77
2022/09/16 07:24:54;;;;;;;0.10;0.10;;;13.00;83.10;;;;;;4717062;30;20056;-76
2022/09/16 07:27:20;;;;;;;0.10;0.10;;;13.00;83.00;;;;;;4731298;30;20523;-77
2022/09/16 07:37:41;;;;;;;0.10;0.10;;;13.20;82.80;;;;;;4694918;30;20065;-76
2022/09/16 07:43:21;;;;;;;0.17;0.17;;;13.20;82.50;;;;;;4695792;30;20100;-76
2022/09/16 07:46:50;;;;;;;0.90;0.30;;;13.20;82.50;;;;;;4695727;30;20073;-77
2022/09/16 07:49:16;;;;;;;0.70;0.20;;;13.30;82.60;;;;;;4692262;30;20085;-78
2022/09/16 07:52:46;;;;;;;0.50;0.30;;;13.40;82.40;;;;;;4710494;30;20052;-77
2022/09/16 08:09:57;;;;;;;0.75;0.32;;;13.80;81.50;;;;;;4725035;30;20055;-78
2022/09/16 08:24:15;;;;;;;0.80;0.22;;;14.30;80.60;;;;;;4681138;30;20613;-76
2022/09/16 08:26:42;;;;;;;0.25;0.20;;;14.40;80.50;;;;;;4683445;30;20072;-75
2022/09/16 08:32:38;;;;;;;0.20;0.20;;;14.40;80.50;;;;;;4710015;30;20121;-76
2022/09/16 08:38:54;;;;;;;0.52;0.25;;;14.60;80.40;;;;;;4709254;30;20130;-76
2022/09/16 08:45:41;;;;;;;0.77;0.22;;;14.70;80.80;;;;;;4712492;30;20191;-78
2022/09/16 08:51:54;;;;;;;0.93;0.30;;;15.00;79.70;;;;;;4745368;30;20090;-75
2022/09/16 09:09:25;;;;;;;0.73;0.30;;;15.60;78.40;;;;;;4788295;29;20054;-76
2022/09/16 09:16:15;;;;;;;0.55;0.30;;;15.60;78.10;;;;;;4768267;30;20422;-76
2022/09/16 09:26:06;;;;;;;0.13;0.13;;;15.60;77.80;;;;;;4840505;29;20048;-74
2022/09/16 09:28:52;;;;;;;0.85;0.20;;;15.70;77.70;;;;;;4824607;29;20141;-74
2022/09/16 09:32:17;;;;;;;0.10;0.10;;;15.70;77.50;;;;;;4809789;29;20037;-75
2022/09/16 09:39:38;;;;;;;0.25;0.20;;;15.70;77.00;;;;;;4849399;29;20140;-76
2022/09/16 09:42:34;;;;;;;0.47;0.25;;;15.70;76.90;;;;;;4852907;29;20086;-75
2022/09/16 09:52:37;;;;;;;0.68;0.20;;;15.70;76.50;;;;;;4825225;29;20053;-76
2022/09/16 09:55:28;;;;;;;0.17;0.10;;;15.80;76.10;;;;;;4819385;29;20047;-75
2022/09/16 09:58:33;;;;;;;0.65;0.25;;;15.80;75.70;;;;;;4838465;29;20102;-75
2022/09/16 10:01:00;;;;;;;0.60;0.30;;;15.70;75.60;;;;;;4865332;29;20211;-76
2022/09/16 10:03:27;;;;;;;0.85;0.30;;;15.70;75.60;;;;;;4859562;29;20044;-75
2022/09/16 10:05:53;;;;;;;0.63;0.25;;;15.70;75.50;;;;;;4861078;29;20045;-76
2022/09/16 10:08:35;;;;;;;0.30;0.20;;;15.80;75.40;;;;;;4859400;29;20046;-76
2022/09/16 10:11:14;;;;;;;1.23;0.20;;;15.90;75.20;;;;;;4859866;29;20053;-75
2022/09/16 10:13:48;;;;;;;1.00;0.20;;;15.80;74.90;;;;;;4845626;29;20073;-76
2022/09/16 10:16:19;;;;;;;1.08;0.20;;;15.80;74.90;;;;;;4839049;29;20528;-76
2022/09/16 10:19:04;;;;;;;0.52;0.20;;;15.70;75.00;;;;;;4878206;29;20051;-74
2022/09/16 10:21:41;;;;;;;0.38;0.20;;;15.70;75.00;;;;;;4843208;29;20061;-74
2022/09/16 10:24:38;;;;;;;0.77;0.30;;;15.70;75.00;;;;;;4830251;29;20053;-74
2022/09/16 10:27:20;;;;;;;0.17;0.17;;;15.70;74.80;;;;;;4916836;29;20040;-73
2022/09/16 10:29:46;;;;;;;0.35;0.20;;;15.70;74.50;;;;;;4933433;29;20039;-74
2022/09/16 10:32:17;;;;;;;0.30;0.30;;;15.80;74.50;;;;;;4886400;29;20404;-73
2022/09/16 10:34:53;;;;;;;0.55;0.35;;;15.90;74.30;;;;;;4933466;29;20596;-76
2022/09/16 10:37:19;;;;;;;0.60;0.10;;;15.90;74.20;;;;;;4902187;29;20063;-75
2022/09/16 10:39:52;;;;;;;0.10;0.10;;;15.90;74.10;;;;;;4918289;29;20040;-74
2022/09/16 10:42:24;;;;;;;0.65;0.32;;;16.00;73.90;;;;;;4934025;29;20127;-74
2022/09/16 10:44:52;;;;;;;0.55;0.30;;;16.10;73.50;;;;;;4933394;29;20040;-73
2022/09/16 10:47:29;;;;;;;0.10;0.10;;;16.00;73.50;;;;;;4902081;29;20049;-73
2022/09/16 10:50:00;;;;;;;0.70;0.20;;;16.10;73.40;;;;;;4917426;29;20130;-72
2022/09/16 10:52:29;;;;;;;0.15;0.15;;;16.30;73.10;;;;;;4936344;29;20051;-72
2022/09/16 10:54:55;;;;;;;0.22;0.20;;;16.50;72.80;;;;;;4953386;29;20533;-72
2022/09/16 10:57:29;;;;;;;1.15;0.17;;;16.60;72.50;;;;;;4953001;29;20406;-74
2022/09/16 11:00:07;;;;;;;2.10;0.45;;;16.70;72.00;;;;;;4954590;28;20047;-74
2022/09/16 11:03:09;;;;;;;0.70;0.30;;;16.70;71.50;;;;;;4952586;29;20058;-74
2022/09/16 11:06:03;;;;;;;0.50;0.30;;;16.80;71.50;;;;;;4953892;29;20106;-75
2022/09/16 11:08:45;;;;;;;0.57;0.20;;;16.70;71.50;;;;;;4954448;29;20035;-75
2022/09/16 11:11:25;;;;;;;0.63;0.30;;;16.80;71.40;;;;;;4952372;29;20058;-74
2022/09/16 11:14:10;;;;;;;1.08;0.30;;;16.90;71.30;;;;;;4954487;29;20032;-74
2022/09/16 11:17:11;;;;;;;1.27;0.30;;;16.90;71.20;;;;;;4953946;29;20090;-74
2022/09/16 11:20:01;;;;;;;0.20;0.20;;;16.80;70.90;;;;;;4951318;29;20393;-73
2022/09/16 11:22:51;;;;;;;0.80;0.20;;;16.60;70.80;;;;;;4951942;29;20054;-75
2022/09/16 11:25:43;;;;;;;0.43;0.20;;;16.50;71.50;;;;;;4954061;29;20113;-75
2022/09/16 11:28:42;;;;;;;0.47;0.20;;;16.30;71.80;;;;;;4951458;29;20122;-74
2022/09/16 11:31:45;;;;;;;0.30;0.20;;;16.30;71.60;;;;;;4954695;29;20194;-74
2022/09/16 11:34:43;;;;;;;1.38;0.30;;;16.30;71.80;;;;;;4951688;29;20047;-75
2022/09/16 11:37:30;;;;;;;0.32;0.30;;;16.20;71.60;;;;;;4954022;29;20043;-76
2022/09/16 11:40:18;;;;;;;0.20;0.10;;;16.30;71.70;;;;;;4935930;29;20094;-74
2022/09/16 11:43:27;;;;;;;0.30;0.30;;;16.30;71.50;;;;;;4881558;29;20037;-74
2022/09/16 11:46:06;;;;;;;0.95;0.20;;;16.50;71.20;;;;;;4841278;29;20067;-74
2022/09/16 11:49:09;;;;;;;0.50;0.30;;;16.50;70.90;;;;;;4843328;29;20076;-75
2022/09/16 11:52:06;;;;;;;0.20;0.20;;;16.40;70.70;;;;;;4829900;29;20045;-75
2022/09/16 11:55:05;;;;;;;0.10;0.10;;;16.50;70.70;;;;;;4855917;29;20069;-73
2022/09/16 11:57:37;;;;;;;0.20;0.20;;;16.40;70.60;;;;;;4857135;29;20065;-74
2022/09/16 12:03:42;;;;;;;1.27;0.20;;;16.30;70.70;;;;;;4855889;29;20528;-75
2022/09/16 12:06:16;;;;;;;0.50;0.30;;;16.20;70.70;;;;;;4891657;29;20127;-75
2022/09/16 12:09:15;;;;;;;0.70;0.30;;;16.10;70.70;;;;;;4894474;29;20484;-75
2022/09/16 12:11:50;;;;;;;0.35;0.20;;;16.10;70.70;;;;;;4891244;29;20055;-76
2022/09/16 12:14:37;;;;;;;2.13;0.40;;;16.30;70.50;;;;;;4893952;29;20044;-75
2022/09/16 12:17:31;;;;;;;0.25;0.10;;;16.40;70.00;;;;;;4920293;29;20050;-75
2022/09/16 12:20:13;;;;;;;0.30;0.30;;;16.60;69.70;;;;;;4950718;29;20051;-75
2022/09/16 12:22:46;;;;;;;0.10;0.10;;;16.60;69.40;;;;;;4951953;29;20046;-73
2022/09/16 12:25:21;;;;;;;0.10;0.10;;;16.40;69.20;;;;;;4935269;29;20038;-76
2022/09/16 12:27:56;;;;;;;0.65;0.30;;;16.50;69.30;;;;;;4951495;29;20047;-75
2022/09/16 12:30:27;;;;;;;0.38;0.20;;;16.40;69.30;;;;;;4951336;29;20046;-74
2022/09/16 12:33:07;;;;;;;1.20;0.32;;;16.40;69.70;;;;;;4935303;29;20115;-75
2022/09/16 12:39:56;;;;;;;0.28;0.20;;;16.30;69.80;;;;;;4872596;29;20117;-75
2022/09/16 12:50:17;;;;;;;0.90;0.30;;;16.70;68.90;;;;;;4747218;30;20115;-74
2022/09/16 12:53:27;;;;;;;0.38;0.30;;;16.50;69.40;;;;;;4742319;30;20396;-74
2022/09/16 12:56:12;;;;;;;1.45;0.60;;;16.50;69.60;;;;;;4755167;30;20135;-74
2022/09/16 12:59:07;;;;;;;1.83;0.47;;;16.50;69.80;;;;;;4750518;30;20118;-74
2022/09/16 13:01:42;;;;;;;1.02;0.40;;;16.50;69.60;;;;;;4753168;30;20055;-74
2022/09/16 13:04:18;;;;;;;0.77;0.55;;;16.50;69.70;;;;;;4752055;30;20051;-74
2022/09/16 13:06:50;;;;;;;0.45;0.30;;;16.50;69.60;;;;;;4766010;30;20547;-74
2022/09/16 13:09:27;;;;;;;0.50;0.40;;;16.60;69.80;;;;;;4766349;30;20119;-74
2022/09/16 13:12:01;;;;;;;1.02;0.30;;;16.70;69.60;;;;;;4794288;29;20049;-74
2022/09/16 13:14:31;;;;;;;1.15;0.50;;;16.80;69.40;;;;;;4838327;29;20054;-73
2022/09/16 13:17:52;;;;;;;1.55;0.20;;;16.90;69.10;;;;;;4837607;29;20208;-75
2022/09/16 13:20:35;;;;;;;0.80;0.40;;;17.10;68.90;;;;;;4782302;29;20088;-74
2022/09/16 13:23:26;;;;;;;1.40;0.35;;;17.00;68.80;;;;;;4809751;29;20117;-75
2022/09/16 13:26:00;;;;;;;;;;;17.10;68.70;;;;;;4844538;29;20132;-75
2022/09/16 13:28:45;;;;;;;0.90;0.30;;;17.00;68.70;;;;;;4829687;29;20399;-76
2022/09/16 13:31:46;;;;;;;0.73;0.38;;;16.90;68.70;;;;;;4827802;29;20146;-76
2022/09/16 13:34:47;;;;;;;0.65;0.20;;;16.90;69.10;;;;;;4843751;29;20125;-76
2022/09/16 13:37:24;;;;;;;0.30;0.30;;;16.90;69.10;;;;;;4826850;29;20113;-76
2022/09/16 14:01:14;;;;;;;1.02;0.40;;;16.40;69.20;;;;;;4726262;30;20075;-74
2022/09/16 14:04:00;;;;;;;2.38;0.47;;;16.10;69.40;;;;;;4732102;30;20052;-73
2022/09/16 14:06:58;;;;;;;0.28;0.28;;;16.00;69.90;;;;;;4733800;30;20064;-74
2022/09/16 14:09:47;;;;;;;1.38;0.40;;;15.80;70.20;;;;;;4750013;30;20076;-73
2022/09/16 14:12:27;;;;;;;0.52;0.25;;;15.70;70.50;;;;;;4750482;30;20055;-72
2022/09/16 14:14:59;;;;;;;0.33;0.20;;;15.60;70.70;;;;;;4714155;30;20417;-73
2022/09/16 14:17:32;;;;;;;0.40;0.30;;;15.60;71.00;;;;;;4725684;30;20136;-74
2022/09/16 14:19:59;;;;;;;0.82;0.40;;;15.60;71.20;;;;;;4725789;30;20041;-74
2022/09/16 14:22:26;;;;;;;0.20;0.20;;;15.60;71.10;;;;;;4748540;30;20147;-74
2022/09/16 14:24:54;;;;;;;0.50;0.28;;;15.70;70.90;;;;;;4750840;30;20123;-74
2022/09/16 14:27:44;;;;;;;1.55;0.30;;;15.90;70.70;;;;;;4778173;29;20043;-73
2022/09/16 14:31:10;;;;;;;0.93;0.30;;;15.90;70.20;;;;;;4804799;29;20054;-73
2022/09/16 14:33:54;;;;;;;0.88;0.30;;;15.90;70.10;;;;;;4806146;29;20049;-74
2022/09/16 14:43:25;;;;;;;1.63;0.28;;;16.20;69.70;;;;;;4837789;29;20065;-74
2022/09/16 14:45:55;;;;;;;0.20;0.20;;;16.10;69.50;;;;;;4796619;29;20139;-74
2022/09/16 14:48:26;;;;;;;0.47;0.20;;;16.30;69.50;;;;;;4840265;29;20054;-74
2022/09/16 14:50:51;;;;;;;1.88;0.40;;;16.30;69.10;;;;;;4840143;29;20196;-74
2022/09/16 14:53:24;;;;;;;1.13;0.50;;;16.40;68.70;;;;;;4840154;29;20129;-74
2022/09/16 14:55:50;;;;;;;1.60;0.40;;;16.40;68.50;;;;;;4893086;29;20127;-74
2022/09/16 14:58:17;;;;;;;0.30;0.22;;;16.50;68.50;;;;;;4896312;29;20520;-73
2022/09/16 15:00:57;;;;;;;1.02;0.35;;;16.50;68.50;;;;;;4879909;29;20035;-73
2022/09/16 15:03:30;;;;;;;;;;;16.40;68.50;;;;;;4896036;29;20067;-76
2022/09/16 15:05:59;;;;;;;0.40;0.30;;;16.30;68.70;;;;;;4895696;29;20274;-78
2022/09/16 15:08:45;;;;;;;1.70;0.40;;;15.90;69.40;;;;;;4937791;29;20038;-78
2022/09/16 15:11:17;;;;;;;0.35;0.30;;;15.70;70.60;;;;;;4953197;29;20031;-79
2022/09/16 15:13:43;;;;;;;0.25;0.20;;;15.40;71.50;;;;;;4954980;29;20036;-78
2022/09/16 15:16:13;;;;;;;1.65;0.40;;;15.20;72.40;;;;;;4951442;29;20505;-77
2022/09/16 15:18:42;;;;;;;0.57;0.43;;;14.90;73.00;;;;;;4935949;29;20027;-78
2022/09/16 15:21:21;;;;;;;0.75;0.20;;;14.90;73.50;;;;;;4955080;29;20053;-78
2022/09/16 15:23:50;;;;;;;1.05;0.40;;;14.90;73.70;;;;;;4952485;29;20043;-76
2022/09/16 15:26:21;;;;;;;0.85;0.30;;;15.00;73.50;;;;;;4952216;29;20038;-77
2022/09/16 15:28:53;;;;;;;0.50;0.20;;;15.00;73.50;;;;;;4954950;29;20124;-76
2022/09/16 17:21:49;;;;;;;0.75;0.20;;;14.20;72.70;;;;;;4732562;30;20125;-85
2022/09/16 17:24:43;;;;;;;0.52;0.20;;;14.30;72.90;;;;;;4750878;30;20041;-84
2022/09/16 18:03:25;;;;;;;0.17;0.10;;;13.30;75.30;;;;;;4804538;29;20053;-83
2022/09/16 18:09:32;;;;;;;0.30;0.20;;;13.10;75.60;;;;;;4821749;29;20100;-84
2022/09/16 18:15:52;;;;;;;0.57;0.17;;;13.00;76.20;;;;;;4788818;29;20585;-84
2022/09/16 18:18:39;;;;;;;0.80;0.20;;;12.90;76.30;;;;;;4791424;29;20180;-84
2022/09/16 18:21:13;;;;;;;0.32;0.20;;;12.80;76.40;;;;;;4789321;29;20103;-84
2022/09/16 18:23:41;;;;;;;0.20;0.20;;;12.80;76.40;;;;;;4733932;30;20045;-81
2022/09/16 18:26:32;;;;;;;1.42;0.20;;;12.80;76.60;;;;;;4718759;30;20543;-87
2022/09/16 18:29:00;;;;;;;;;;;12.70;76.70;;;;;;4680692;30;20066;-86
2022/09/16 18:31:32;;;;;;;0.10;0.10;;;12.70;76.70;;;;;;4668775;30;19942;-84
2022/09/16 18:33:57;;;;;;;0.40;0.20;;;12.70;76.70;;;;;;4642987;30;20098;-82